createdAt,value
2022-08-20T00:02:09.130Z,18.00
2022-08-20T00:07:31.634Z,13.98
2022-08-20T00:12:54.103Z,15.77
2022-08-20T00:18:16.724Z,15.15
2022-08-20T00:23:45.135Z,15.90
2022-08-20T00:29:07.719Z,16.77
2022-08-20T00:34:30.430Z,15.20
2022-08-20T00:39:53.111Z,17.10
2022-08-20T00:45:16.987Z,14.82
2022-08-20T00:50:39.574Z,15.65
2022-08-20T00:56:02.331Z,16.13
2022-08-20T01:01:24.757Z,15.55
2022-08-20T01:06:48.688Z,17.30
2022-08-20T01:12:12.662Z,13.07
2022-08-20T01:17:36.811Z,15.90
2022-08-20T01:23:32.907Z,17.27
2022-08-20T01:29:11.040Z,16.50
2022-08-20T01:34:34.559Z,16.90
2022-08-20T01:39:57.189Z,17.98
2022-08-20T01:45:19.758Z,17.33
2022-08-20T01:50:49.663Z,15.98
2022-08-20T01:56:16.488Z,14.00
2022-08-20T02:01:40.780Z,11.45
2022-08-20T02:07:18.680Z,13.32
2022-08-20T02:12:41.582Z,11.40
2022-08-20T02:18:10.310Z,12.85
2022-08-20T02:23:32.843Z,13.88
2022-08-20T02:28:55.835Z,12.18
2022-08-20T02:34:22.951Z,9.73
2022-08-20T02:39:46.449Z,8.55
2022-08-20T02:45:16.512Z,9.48
2022-08-20T02:50:43.987Z,9.27
2022-08-20T02:56:07.139Z,10.13
2022-08-20T03:01:31.076Z,8.23
2022-08-20T03:06:53.192Z,9.07
2022-08-20T03:12:15.826Z,14.43
2022-08-20T03:17:38.486Z,22.70
2022-08-20T03:23:01.541Z,26.20
2022-08-20T03:28:24.258Z,26.75
2022-08-20T03:33:52.667Z,29.50
2022-08-20T03:39:16.378Z,28.08
2022-08-20T03:44:38.940Z,27.45
2022-08-20T03:50:02.605Z,29.48
2022-08-20T03:55:25.467Z,25.77
2022-08-20T04:00:50.402Z,27.10
2022-08-20T04:06:12.906Z,27.65
2022-08-20T04:11:35.270Z,27.08
2022-08-20T04:16:57.446Z,29.17
2022-08-20T04:22:19.750Z,30.52
2022-08-20T04:27:42.833Z,29.27
2022-08-20T04:33:05.255Z,26.67
2022-08-20T04:38:27.778Z,29.98
2022-08-20T04:44:11.151Z,31.27
2022-08-20T04:49:33.422Z,27.98
2022-08-20T04:54:58.723Z,24.73
2022-08-20T05:00:21.238Z,27.65
2022-08-20T05:05:45.289Z,27.38
2022-08-20T05:11:33.744Z,30.45
2022-08-20T05:16:53.549Z,28.02
2022-08-20T05:22:16.679Z,27.58
2022-08-20T05:27:47.304Z,26.75
2022-08-20T05:33:11.503Z,29.70
2022-08-20T05:38:36.039Z,30.83
2022-08-20T05:44:01.420Z,27.40
2022-08-20T05:49:23.879Z,29.10
2022-08-20T05:54:46.536Z,27.02
2022-08-20T06:00:12.991Z,27.40
2022-08-20T06:05:36.101Z,32.53
2022-08-20T06:10:58.478Z,25.65
2022-08-20T06:16:20.876Z,26.45
2022-08-20T06:21:43.543Z,27.20
2022-08-20T06:27:07.004Z,27.15
2022-08-20T06:32:32.701Z,27.13
2022-08-20T06:38:00.449Z,35.10
2022-08-20T06:43:23.539Z,29.50
2022-08-20T06:48:46.263Z,31.63
2022-08-20T06:54:09.008Z,26.42
2022-08-20T06:59:31.492Z,33.03
2022-08-20T07:04:55.457Z,31.70
2022-08-20T07:10:19.740Z,28.98
2022-08-20T07:15:44.127Z,36.30
2022-08-20T07:21:06.878Z,30.60
2022-08-20T07:26:29.183Z,28.83
2022-08-20T07:32:10.284Z,33.97
2022-08-20T07:37:42.043Z,35.30
2022-08-20T07:43:04.299Z,32.00
2022-08-20T07:48:31.913Z,29.05
2022-08-20T07:53:55.175Z,32.75
2022-08-20T07:59:17.897Z,31.90
2022-08-20T08:04:40.284Z,37.05
2022-08-20T08:10:06.542Z,33.85
2022-08-20T08:15:32.965Z,33.45
2022-08-20T08:20:58.178Z,31.65
2022-08-20T08:26:20.647Z,31.33
2022-08-20T08:31:43.511Z,35.33
2022-08-20T08:37:06.547Z,32.35
2022-08-20T08:42:43.277Z,33.33
2022-08-20T08:48:06.175Z,35.55
2022-08-20T08:53:34.964Z,34.35
2022-08-20T08:59:11.497Z,38.88
2022-08-20T09:04:40.120Z,35.10
2022-08-20T09:10:03.047Z,34.20
2022-08-20T09:15:25.850Z,36.83
2022-08-20T09:20:48.391Z,35.15
2022-08-20T09:26:10.767Z,34.67
2022-08-20T09:31:33.306Z,36.60
2022-08-20T09:36:55.583Z,39.17
2022-08-20T09:42:22.230Z,39.55
2022-08-20T09:47:54.998Z,36.63
2022-08-20T09:53:20.966Z,39.10
2022-08-20T09:58:48.069Z,35.63
2022-08-20T10:04:10.336Z,38.72
2022-08-20T10:09:34.828Z,39.53
2022-08-20T10:14:57.384Z,42.78
2022-08-20T10:20:20.800Z,40.78
2022-08-20T10:25:43.598Z,39.38
2022-08-20T10:33:34.346Z,36.97
2022-08-20T10:38:57.090Z,36.58
2022-08-20T10:44:19.781Z,35.10
2022-08-20T10:49:42.458Z,37.58
2022-08-20T10:55:05.754Z,36.15
2022-08-20T11:00:28.322Z,36.65
2022-08-20T11:05:50.477Z,38.40
2022-08-20T11:11:12.940Z,38.10
2022-08-20T11:16:35.217Z,38.83
2022-08-20T11:21:57.915Z,36.97
2022-08-20T11:27:33.248Z,34.47
2022-08-20T11:32:56.583Z,32.65
2022-08-20T11:38:19.230Z,30.95
2022-08-20T11:43:41.581Z,30.50
2022-08-20T11:49:04.394Z,32.20
2022-08-20T11:54:28.997Z,27.25
2022-08-20T11:59:53.257Z,27.80
2022-08-20T12:05:16.187Z,32.95
2022-08-20T12:10:38.952Z,28.85
2022-08-20T12:16:02.108Z,26.00
2022-08-20T12:21:24.568Z,24.60
2022-08-20T12:26:46.942Z,25.83
2022-08-20T12:32:09.680Z,18.95
2022-08-20T12:37:32.807Z,18.30
2022-08-20T12:42:55.229Z,12.77
2022-08-20T12:48:21.156Z,15.00
2022-08-20T12:53:43.928Z,14.02
2022-08-20T12:59:06.681Z,18.30
2022-08-20T13:04:29.126Z,12.07
2022-08-20T13:09:52.209Z,13.57
2022-08-20T13:15:15.071Z,13.05
2022-08-20T13:20:37.567Z,14.75
2022-08-20T13:25:59.898Z,10.27
2022-08-20T13:31:22.402Z,11.00
2022-08-20T13:36:44.990Z,10.02
2022-08-20T13:42:07.824Z,8.43
2022-08-20T13:47:36.747Z,7.80
2022-08-20T13:52:59.256Z,11.63
2022-08-20T13:58:22.965Z,8.05
2022-08-20T14:03:46.616Z,7.47
2022-08-20T14:09:09.287Z,8.95
2022-08-20T14:14:31.675Z,8.25
2022-08-20T14:20:01.135Z,9.38
2022-08-20T14:25:25.561Z,8.93
2022-08-20T14:30:52.851Z,11.25
2022-08-20T14:36:15.668Z,10.68
2022-08-20T14:41:37.971Z,10.00
2022-08-20T14:47:27.331Z,11.77
2022-08-20T14:52:49.744Z,12.93
2022-08-20T14:58:15.081Z,12.63
2022-08-20T15:03:37.515Z,13.35
2022-08-20T15:09:00.411Z,12.63
2022-08-20T15:14:22.947Z,15.88
2022-08-20T15:19:48.379Z,12.48
2022-08-20T15:25:14.675Z,13.30
2022-08-20T15:30:40.375Z,14.30
2022-08-20T15:36:03.688Z,16.05
2022-08-20T15:41:30.427Z,17.33
2022-08-20T15:47:27.095Z,16.48
2022-08-20T15:52:49.466Z,17.77
2022-08-20T15:58:17.362Z,17.00
2022-08-20T16:03:51.966Z,17.77
2022-08-20T16:09:38.110Z,22.58
2022-08-20T16:15:04.767Z,17.00
2022-08-20T16:20:35.548Z,19.88
2022-08-20T16:26:20.406Z,19.75
2022-08-20T16:31:55.737Z,18.40
2022-08-20T16:37:25.358Z,18.92
2022-08-20T16:42:54.231Z,22.05
2022-08-20T16:48:17.007Z,18.38
2022-08-20T16:53:39.870Z,20.85
2022-08-20T16:59:08.904Z,25.67
2022-08-20T17:04:31.835Z,21.77
2022-08-20T17:10:09.074Z,22.30
2022-08-20T17:15:35.173Z,23.15
2022-08-20T17:21:14.520Z,30.42
2022-08-20T17:26:42.828Z,23.67
2022-08-20T17:32:16.389Z,23.98
2022-08-20T17:37:42.702Z,22.77
2022-08-20T17:43:09.039Z,25.08
2022-08-20T17:48:37.849Z,20.90
2022-08-20T17:54:19.475Z,22.95
2022-08-20T18:00:01.671Z,25.83
2022-08-20T18:05:31.217Z,23.65
2022-08-20T18:11:33.674Z,24.27
2022-08-20T18:17:14.778Z,24.58
2022-08-20T18:22:49.344Z,24.40
2022-08-20T18:28:18.427Z,23.58
2022-08-20T18:33:43.061Z,25.55
2022-08-20T18:39:09.526Z,25.25
2022-08-20T18:44:40.850Z,25.48
2022-08-20T18:50:15.915Z,21.05
2022-08-20T18:55:43.749Z,25.67
2022-08-20T19:01:12.808Z,30.13
2022-08-20T19:06:54.407Z,24.60
2022-08-20T19:12:57.074Z,30.10
2022-08-20T19:18:31.892Z,24.80
2022-08-20T19:23:57.201Z,24.88
2022-08-20T19:29:56.920Z,29.77
2022-08-20T19:35:19.731Z,28.38
2022-08-20T19:40:43.610Z,27.67
2022-08-20T19:46:09.235Z,30.98
2022-08-20T19:51:52.107Z,29.23
2022-08-20T19:57:17.980Z,28.33
2022-08-20T20:02:41.748Z,30.02
2022-08-20T20:08:07.080Z,31.73
2022-08-20T20:13:32.818Z,30.65
2022-08-20T20:19:25.305Z,30.48
2022-08-20T20:24:57.616Z,29.85
2022-08-20T20:30:33.228Z,30.33
2022-08-20T20:36:10.091Z,32.92
2022-08-20T20:41:34.763Z,31.58
2022-08-20T20:47:00.732Z,34.42
2022-08-20T20:52:32.755Z,31.95
2022-08-20T20:57:55.195Z,28.42
2022-08-20T21:03:18.135Z,33.20
2022-08-20T21:08:42.779Z,30.77
2022-08-20T21:14:05.404Z,30.63
2022-08-20T21:19:28.167Z,29.52
2022-08-20T21:24:51.576Z,25.60
2022-08-20T21:30:15.374Z,27.23
2022-08-20T21:35:37.975Z,26.08
2022-08-20T21:41:00.598Z,22.88
2022-08-20T21:46:26.218Z,25.00
2022-08-20T21:51:49.495Z,22.17
2022-08-20T21:57:21.043Z,21.80
2022-08-20T22:02:43.549Z,19.25
2022-08-20T22:08:06.130Z,17.90
2022-08-20T22:13:32.768Z,17.65
2022-08-20T22:18:54.980Z,16.92
2022-08-20T22:24:17.443Z,13.95
2022-08-20T22:29:40.275Z,15.48
2022-08-20T22:35:03.346Z,19.10
2022-08-20T22:40:25.944Z,17.67
2022-08-20T22:45:52.408Z,16.10
2022-08-20T22:51:22.863Z,15.15
2022-08-20T22:56:45.271Z,12.73
2022-08-20T23:02:15.694Z,11.85
2022-08-20T23:07:38.338Z,12.25
2022-08-20T23:13:01.110Z,14.95
2022-08-20T23:18:23.947Z,13.10
2022-08-20T23:23:46.252Z,15.15
2022-08-20T23:29:08.956Z,14.43
2022-08-20T23:34:31.571Z,12.48
2022-08-20T23:39:54.022Z,10.98
2022-08-20T23:45:16.725Z,13.45
2022-08-20T23:50:39.401Z,13.18
2022-08-20T23:56:01.767Z,12.35
